createdAt,value
2018-07-20T00:00:33.897Z,16.05
2018-07-20T00:03:07.990Z,15.95
2018-07-20T00:05:41.850Z,15.95
2018-07-20T00:08:15.842Z,15.93
2018-07-20T00:10:49.710Z,15.84
2018-07-20T00:13:23.827Z,15.76
2018-07-20T00:15:57.688Z,15.74
2018-07-20T00:18:31.692Z,15.60
2018-07-20T00:21:05.730Z,15.65
2018-07-20T00:23:39.872Z,15.65
2018-07-20T00:26:13.924Z,15.55
2018-07-20T00:28:47.990Z,15.44
2018-07-20T00:31:22.027Z,15.24
2018-07-20T00:33:56.145Z,15.12
2018-07-20T00:36:30.134Z,15.00
2018-07-20T00:39:06.165Z,14.83
2018-07-20T00:41:40.389Z,14.58
2018-07-20T00:44:14.277Z,14.37
2018-07-20T00:46:48.245Z,14.47
2018-07-20T00:49:22.346Z,14.78
2018-07-20T00:51:56.440Z,14.83
2018-07-20T00:54:30.473Z,14.82
2018-07-20T00:57:05.389Z,14.90
2018-07-20T00:59:39.281Z,14.80
2018-07-20T01:02:13.369Z,14.82
2018-07-20T01:04:47.322Z,14.86
2018-07-20T01:07:21.205Z,14.78
2018-07-20T01:09:55.384Z,14.84
2018-07-20T01:12:29.633Z,14.90
2018-07-20T01:15:03.637Z,14.84
2018-07-20T01:17:37.526Z,14.83
2018-07-20T01:20:11.568Z,14.76
2018-07-20T01:22:45.416Z,14.67
2018-07-20T01:25:19.555Z,14.65
2018-07-20T01:27:53.641Z,14.65
2018-07-20T01:30:27.680Z,14.60
2018-07-20T01:33:01.500Z,14.46
2018-07-20T01:35:35.549Z,14.45
2018-07-20T01:38:09.618Z,14.57
2018-07-20T01:40:43.604Z,14.54
2018-07-20T01:43:17.498Z,14.57
2018-07-20T01:45:51.519Z,14.30
2018-07-20T01:48:25.472Z,14.11
2018-07-20T01:50:59.406Z,14.10
2018-07-20T01:53:33.295Z,14.13
2018-07-20T01:56:07.332Z,13.94
2018-07-20T01:58:41.247Z,13.82
2018-07-20T02:01:18.318Z,13.95
2018-07-20T02:03:52.413Z,13.99
2018-07-20T02:06:26.608Z,14.09
2018-07-20T02:09:00.449Z,14.19
2018-07-20T02:11:34.419Z,14.31
2018-07-20T02:14:08.397Z,14.26
2018-07-20T02:16:42.410Z,14.22
2018-07-20T02:19:16.382Z,14.31
2018-07-20T02:21:50.350Z,14.31
2018-07-20T02:24:24.186Z,14.37
2018-07-20T02:26:58.381Z,14.21
2018-07-20T02:29:32.294Z,14.25
2018-07-20T02:32:06.275Z,13.95
2018-07-20T02:34:40.134Z,13.87
2018-07-20T02:37:14.576Z,13.58
2018-07-20T02:39:48.416Z,13.11
2018-07-20T02:42:22.510Z,12.93
2018-07-20T02:44:56.341Z,12.87
2018-07-20T02:47:30.278Z,12.74
2018-07-20T02:50:04.349Z,12.93
2018-07-20T02:52:38.326Z,12.98
2018-07-20T02:55:12.251Z,13.31
2018-07-20T02:57:46.226Z,13.33
2018-07-20T03:00:20.188Z,13.16
2018-07-20T03:02:54.183Z,13.16
2018-07-20T03:05:28.122Z,13.28
2018-07-20T03:08:02.125Z,13.39
2018-07-20T03:10:36.022Z,13.25
2018-07-20T03:13:10.014Z,13.52
2018-07-20T03:15:43.860Z,13.58
2018-07-20T03:18:17.912Z,13.65
2018-07-20T03:20:51.843Z,13.66
2018-07-20T03:23:25.880Z,13.71
2018-07-20T03:25:59.939Z,13.71
2018-07-20T03:28:36.163Z,13.73
2018-07-20T03:31:10.276Z,13.17
2018-07-20T03:33:44.246Z,13.09
2018-07-20T03:36:18.249Z,13.03
2018-07-20T03:38:52.240Z,13.03
2018-07-20T03:41:26.160Z,13.21
2018-07-20T03:44:00.260Z,13.40
2018-07-20T03:46:34.262Z,13.58
2018-07-20T03:49:08.263Z,13.70
2018-07-20T03:51:42.187Z,13.74
2018-07-20T03:54:16.146Z,13.87
2018-07-20T03:56:50.412Z,14.02
2018-07-20T03:59:24.505Z,14.08
2018-07-20T04:01:58.557Z,14.05
2018-07-20T04:04:32.577Z,14.29
2018-07-20T04:07:06.541Z,14.32
2018-07-20T04:09:40.478Z,14.32
2018-07-20T04:12:14.422Z,14.45
2018-07-20T04:14:48.645Z,14.56
2018-07-20T04:17:22.697Z,14.89
2018-07-20T04:19:56.627Z,15.00
2018-07-20T04:22:30.719Z,15.10
2018-07-20T04:25:05.036Z,15.20
2018-07-20T04:27:38.872Z,15.08
2018-07-20T04:30:13.877Z,15.29
2018-07-20T04:32:47.832Z,15.37
2018-07-20T04:35:21.801Z,15.36
2018-07-20T04:37:55.705Z,15.47
2018-07-20T04:40:29.925Z,15.84
2018-07-20T04:43:03.733Z,15.84
2018-07-20T04:45:37.813Z,16.15
2018-07-20T04:48:11.917Z,16.27
2018-07-20T04:50:45.930Z,16.50
2018-07-20T04:53:19.811Z,16.71
2018-07-20T04:55:53.828Z,17.09
2018-07-20T04:58:27.762Z,17.30
2018-07-20T05:01:01.881Z,17.45
2018-07-20T05:03:35.804Z,17.71
2018-07-20T05:06:09.825Z,17.87
2018-07-20T05:08:43.736Z,18.20
2018-07-20T05:11:17.646Z,18.19
2018-07-20T05:13:51.529Z,18.34
2018-07-20T05:16:25.497Z,18.62
2018-07-20T05:18:59.331Z,18.63
2018-07-20T05:21:33.456Z,18.90
2018-07-20T05:24:07.484Z,18.67
2018-07-20T05:26:41.559Z,18.58
2018-07-20T05:29:15.559Z,18.51
2018-07-20T05:31:49.743Z,19.11
2018-07-20T05:34:23.841Z,19.46
2018-07-20T05:36:57.944Z,19.86
2018-07-20T05:39:32.042Z,19.98
2018-07-20T05:42:06.528Z,20.16
2018-07-20T05:44:40.605Z,20.34
2018-07-20T05:47:14.902Z,20.18
2018-07-20T05:49:48.787Z,20.23
2018-07-20T05:52:22.928Z,20.49
2018-07-20T05:54:56.828Z,20.23
2018-07-20T05:57:30.817Z,20.18
2018-07-20T06:00:05.223Z,20.23
2018-07-20T06:02:40.295Z,20.26
2018-07-20T06:05:14.177Z,20.56
2018-07-20T06:07:48.256Z,20.77
2018-07-20T06:10:22.464Z,20.63
2018-07-20T06:12:56.579Z,20.93
2018-07-20T06:15:24.364Z,20.84
2018-07-20T06:17:52.165Z,20.85
2018-07-20T06:20:20.232Z,20.95
2018-07-20T06:24:12.440Z,21.17
2018-07-20T06:26:40.396Z,21.22
2018-07-20T06:29:08.205Z,21.46
2018-07-20T06:31:36.041Z,21.64
2018-07-20T06:34:04.465Z,21.84
2018-07-20T06:36:32.355Z,22.06
2018-07-20T06:39:00.148Z,22.46
2018-07-20T06:41:29.223Z,22.29
2018-07-20T06:43:57.046Z,22.00
2018-07-20T06:46:24.935Z,21.81
2018-07-20T06:48:52.851Z,21.45
2018-07-20T06:51:20.733Z,21.53
2018-07-20T06:53:48.608Z,21.76
2018-07-20T06:56:16.597Z,22.33
2018-07-20T06:58:44.486Z,22.18
2018-07-20T07:01:12.363Z,22.31
2018-07-20T07:03:40.645Z,22.24
2018-07-20T07:06:08.522Z,22.20
2018-07-20T07:08:36.401Z,22.19
2018-07-20T07:11:04.349Z,22.26
2018-07-20T07:13:32.265Z,22.38
2018-07-20T07:16:00.178Z,22.40
2018-07-20T07:18:28.201Z,22.50
2018-07-20T07:20:56.273Z,22.62
2018-07-20T07:23:24.157Z,22.75
2018-07-20T07:25:52.752Z,23.21
2018-07-20T07:28:20.606Z,23.28
2018-07-20T07:30:48.484Z,23.23
2018-07-20T07:33:16.400Z,22.95
2018-07-20T07:35:44.714Z,23.28
2018-07-20T07:38:12.649Z,23.39
2018-07-20T07:40:40.587Z,23.64
2018-07-20T07:43:08.491Z,23.64
2018-07-20T07:45:36.374Z,23.80
2018-07-20T07:48:04.604Z,23.72
2018-07-20T07:50:32.486Z,23.96
2018-07-20T07:53:00.365Z,24.01
2018-07-20T07:55:28.262Z,24.31
2018-07-20T07:57:56.148Z,24.28
2018-07-20T08:00:24.023Z,24.30
2018-07-20T08:02:51.950Z,24.64
2018-07-20T08:05:19.844Z,24.46
2018-07-20T08:07:47.725Z,24.59
2018-07-20T08:10:15.999Z,24.62
2018-07-20T08:12:43.890Z,24.72
2018-07-20T08:22:13.160Z,24.54
2018-07-20T08:24:41.034Z,24.27
2018-07-20T08:27:08.924Z,24.77
2018-07-20T08:29:37.099Z,25.06
2018-07-20T08:32:05.061Z,24.77
2018-07-20T08:34:32.970Z,24.69
2018-07-20T08:37:01.403Z,24.97
2018-07-20T08:39:29.286Z,25.11
2018-07-20T08:41:57.196Z,25.27
2018-07-20T08:44:25.091Z,25.04
2018-07-20T08:46:53.237Z,25.45
2018-07-20T08:49:21.115Z,25.46
2018-07-20T08:51:49.238Z,25.52
2018-07-20T08:54:17.145Z,25.51
2018-07-20T08:56:45.093Z,25.46
2018-07-20T08:59:13.139Z,25.25
2018-07-20T09:01:41.008Z,25.73
2018-07-20T09:04:08.919Z,25.00
2018-07-20T09:06:37.445Z,25.42
2018-07-20T09:09:07.017Z,25.56
2018-07-20T09:11:34.904Z,25.65
2018-07-20T09:14:03.334Z,25.71
2018-07-20T09:16:31.208Z,25.55
2018-07-20T09:19:04.540Z,25.68
2018-07-20T09:21:32.464Z,25.96
2018-07-20T09:24:00.366Z,25.99
2018-07-20T09:26:28.615Z,26.46
2018-07-20T09:35:52.873Z,26.74
2018-07-20T09:38:33.105Z,27.15
2018-07-20T09:41:01.349Z,26.47
2018-07-20T09:43:29.229Z,26.65
2018-07-20T09:45:57.116Z,26.84
2018-07-20T09:48:25.046Z,26.76
2018-07-20T09:50:52.964Z,26.75
2018-07-20T09:53:20.862Z,26.51
2018-07-20T09:55:49.011Z,26.47
2018-07-20T09:58:16.925Z,26.70
2018-07-20T10:00:48.601Z,26.67
2018-07-20T10:03:16.746Z,26.77
2018-07-20T10:05:44.808Z,26.70
2018-07-20T10:08:12.771Z,26.60
2018-07-20T10:10:40.714Z,27.08
2018-07-20T10:13:08.687Z,27.08
2018-07-20T10:15:36.615Z,27.25
2018-07-20T10:18:04.959Z,27.03
2018-07-20T10:20:32.873Z,27.33
2018-07-20T10:23:01.121Z,27.18
2018-07-20T10:25:29.176Z,27.29
2018-07-20T10:27:57.647Z,27.12
2018-07-20T10:30:25.529Z,27.14
2018-07-20T10:32:53.446Z,27.03
2018-07-20T10:35:21.353Z,27.07
2018-07-20T10:37:49.227Z,27.42
2018-07-20T10:40:17.364Z,27.45
2018-07-20T10:42:45.648Z,27.56
2018-07-20T10:45:13.515Z,26.91
2018-07-20T10:47:41.428Z,26.89
2018-07-20T10:50:09.354Z,27.37
2018-07-20T10:52:37.286Z,27.27
2018-07-20T10:55:05.304Z,27.24
2018-07-20T10:57:33.169Z,27.34
2018-07-20T11:00:01.044Z,27.54
2018-07-20T11:02:29.341Z,27.68
2018-07-20T11:04:57.250Z,27.72
2018-07-20T11:07:25.131Z,27.99
2018-07-20T11:09:53.090Z,27.63
2018-07-20T11:12:20.988Z,27.20
2018-07-20T11:14:49.507Z,27.49
2018-07-20T11:17:17.430Z,27.83
2018-07-20T11:19:45.298Z,27.74
2018-07-20T11:22:13.280Z,27.66
2018-07-20T11:24:41.543Z,27.87
2018-07-20T11:27:09.430Z,27.89
2018-07-20T11:29:37.454Z,28.10
2018-07-20T11:32:05.498Z,28.30
2018-07-20T11:34:33.374Z,28.39
2018-07-20T11:37:01.310Z,28.39
2018-07-20T11:39:29.304Z,28.42
2018-07-20T11:41:57.261Z,28.30
2018-07-20T11:44:25.379Z,28.29
2018-07-20T11:46:53.565Z,28.37
2018-07-20T11:49:36.516Z,27.66
2018-07-20T11:52:04.503Z,27.78
2018-07-20T11:54:32.396Z,27.82
2018-07-20T11:57:00.273Z,28.07
2018-07-20T11:59:28.179Z,27.71
2018-07-20T12:01:56.066Z,27.88
2018-07-20T12:04:23.969Z,28.01
2018-07-20T12:06:52.158Z,27.93
2018-07-20T12:09:20.059Z,28.09
2018-07-20T12:11:47.982Z,27.91
2018-07-20T12:14:15.912Z,28.29
2018-07-20T12:16:43.791Z,28.23
2018-07-20T12:19:11.665Z,27.84
2018-07-20T12:21:39.656Z,27.40
2018-07-20T12:24:07.553Z,27.58
2018-07-20T12:26:35.457Z,28.02
2018-07-20T12:29:03.637Z,28.28
2018-07-20T12:31:31.513Z,28.07
2018-07-20T12:33:59.438Z,28.08
2018-07-20T12:36:27.465Z,28.02
2018-07-20T12:39:00.041Z,27.78
2018-07-20T12:41:27.969Z,27.43
2018-07-20T12:43:55.892Z,27.92
2018-07-20T12:46:24.037Z,27.86
2018-07-20T12:48:52.210Z,27.20
2018-07-20T12:51:20.200Z,27.77
2018-07-20T12:53:48.127Z,27.89
2018-07-20T12:57:40.454Z,27.86
2018-07-20T13:00:08.335Z,28.01
2018-07-20T13:02:36.242Z,28.54
2018-07-20T13:05:04.883Z,27.94
2018-07-20T13:07:32.792Z,27.81
2018-07-20T13:10:00.678Z,28.14
2018-07-20T13:12:28.601Z,27.70
2018-07-20T13:14:56.520Z,27.38
2018-07-20T13:17:24.552Z,27.52
2018-07-20T13:19:52.556Z,27.90
2018-07-20T13:22:20.462Z,27.11
2018-07-20T13:24:48.361Z,26.83
2018-07-20T13:27:16.645Z,26.59
2018-07-20T13:29:44.549Z,26.94
2018-07-20T13:32:12.605Z,26.53
2018-07-20T13:34:40.702Z,26.43
2018-07-20T13:37:08.613Z,25.93
2018-07-20T13:39:36.592Z,25.79
2018-07-20T13:42:04.589Z,25.49
2018-07-20T13:44:32.553Z,25.65
2018-07-20T13:47:01.522Z,25.53
2018-07-20T13:49:29.717Z,25.79
2018-07-20T13:51:57.575Z,25.62
2018-07-20T13:54:25.462Z,25.71
2018-07-20T13:56:53.508Z,25.72
2018-07-20T13:59:21.504Z,25.43
2018-07-20T14:01:49.428Z,25.47
2018-07-20T14:04:17.392Z,25.57
2018-07-20T14:06:45.424Z,25.39
2018-07-20T14:09:13.316Z,25.21
2018-07-20T14:11:41.573Z,25.36
2018-07-20T14:14:10.038Z,25.28
2018-07-20T14:16:38.910Z,25.40
2018-07-20T14:19:07.007Z,25.31
2018-07-20T14:21:35.021Z,25.23
2018-07-20T14:24:03.293Z,25.33
2018-07-20T14:26:31.333Z,25.23
2018-07-20T14:28:59.266Z,25.11
2018-07-20T14:31:27.199Z,25.12
2018-07-20T14:33:55.702Z,25.08
2018-07-20T14:36:23.571Z,25.07
2018-07-20T14:38:51.530Z,25.01
2018-07-20T14:41:19.566Z,25.10
2018-07-20T14:43:47.429Z,24.99
2018-07-20T14:46:15.370Z,25.04
2018-07-20T14:48:43.785Z,25.09
2018-07-20T14:54:03.387Z,25.51
2018-07-20T14:56:31.277Z,25.89
2018-07-20T14:58:59.135Z,26.66
2018-07-20T15:01:27.079Z,26.89
2018-07-20T15:03:54.964Z,27.20
2018-07-20T15:06:22.836Z,26.44
2018-07-20T15:08:50.737Z,26.06
2018-07-20T15:11:18.684Z,25.66
2018-07-20T15:13:46.565Z,25.53
2018-07-20T15:16:14.757Z,25.38
2018-07-20T15:18:42.619Z,25.44
2018-07-20T15:21:10.497Z,25.27
2018-07-20T15:23:38.468Z,25.24
2018-07-20T15:26:06.352Z,25.03
2018-07-20T15:28:34.235Z,24.99
2018-07-20T15:31:02.156Z,24.83
2018-07-20T15:33:30.040Z,24.89
2018-07-20T15:35:57.941Z,24.88
2018-07-20T15:38:26.194Z,24.83
2018-07-20T15:40:54.073Z,24.79
2018-07-20T15:43:22.010Z,24.78
2018-07-20T15:46:05.768Z,24.77
2018-07-20T15:48:17.826Z,24.77
2018-07-20T15:50:46.046Z,24.79
2018-07-20T15:53:40.525Z,24.63
2018-07-20T15:55:42.043Z,24.74
2018-07-20T15:58:09.916Z,24.68
2018-07-20T16:00:38.057Z,24.62
2018-07-20T16:03:06.030Z,24.67
2018-07-20T16:05:33.938Z,24.78
2018-07-20T16:08:01.851Z,24.71
2018-07-20T16:10:29.738Z,24.75
2018-07-20T16:12:57.647Z,24.90
2018-07-20T16:15:25.592Z,24.91
2018-07-20T16:17:53.476Z,24.95
2018-07-20T16:20:21.492Z,24.89
2018-07-20T16:22:50.259Z,24.93
2018-07-20T16:25:18.172Z,24.79
2018-07-20T16:27:46.305Z,24.80
2018-07-20T16:30:14.250Z,24.72
2018-07-20T16:32:42.140Z,24.60
2018-07-20T16:35:10.512Z,24.41
2018-07-20T16:37:38.447Z,24.43
2018-07-20T16:40:06.380Z,24.44
2018-07-20T16:42:34.812Z,24.37
2018-07-20T16:45:03.141Z,24.25
2018-07-20T16:47:31.065Z,24.16
2018-07-20T16:49:58.967Z,24.13
2018-07-20T16:52:27.156Z,23.95
2018-07-20T16:54:55.178Z,23.93
2018-07-20T16:57:23.089Z,23.90
2018-07-20T16:59:51.093Z,23.79
2018-07-20T17:02:18.997Z,23.83
2018-07-20T17:04:46.949Z,23.75
2018-07-20T17:09:48.903Z,23.62
2018-07-20T17:12:16.798Z,23.60
2018-07-20T17:14:45.695Z,23.67
2018-07-20T17:17:13.589Z,23.62
2018-07-20T17:19:41.583Z,23.62
2018-07-20T17:22:09.527Z,23.54
2018-07-20T18:31:07.273Z,22.10
2018-07-20T18:33:35.291Z,22.08
2018-07-20T18:36:03.431Z,22.07
2018-07-20T18:38:31.371Z,22.02
2018-07-20T18:42:23.665Z,21.94
2018-07-20T18:44:51.624Z,21.87
2018-07-20T18:47:19.485Z,21.77
2018-07-20T18:49:47.407Z,21.62
2018-07-20T18:52:15.673Z,21.64
2018-07-20T18:54:43.559Z,21.56
2018-07-20T18:57:11.438Z,21.56
2018-07-20T18:59:39.393Z,21.49
2018-07-20T19:02:07.748Z,21.51
2018-07-20T19:04:35.661Z,21.49
2018-07-20T19:07:03.719Z,21.45
2018-07-20T19:09:31.607Z,21.40
2018-07-20T19:11:59.550Z,21.30
2018-07-20T19:14:27.689Z,21.36
2018-07-20T19:16:55.665Z,21.15
2018-07-20T19:19:23.574Z,21.08
2018-07-20T19:21:51.539Z,21.00
2018-07-20T19:24:19.456Z,20.94
2018-07-20T19:26:47.504Z,20.84
2018-07-20T19:29:15.425Z,20.99
2018-07-20T19:31:43.648Z,21.04
2018-07-20T19:34:11.633Z,20.95
2018-07-20T19:44:21.204Z,20.90
2018-07-20T19:46:49.103Z,20.83
2018-07-20T19:49:17.003Z,20.71
2018-07-20T19:51:45.776Z,20.74
2018-07-20T19:54:13.676Z,20.70
2018-07-20T19:56:41.576Z,20.63
2018-07-20T19:59:14.697Z,20.58
2018-07-20T20:01:42.601Z,20.52
2018-07-20T20:04:10.804Z,20.38
2018-07-20T20:06:39.395Z,20.42
2018-07-20T20:09:09.074Z,20.45
2018-07-20T20:11:37.536Z,20.39
2018-07-20T20:14:05.493Z,20.32
2018-07-20T20:16:33.444Z,20.22
2018-07-20T20:19:01.488Z,20.22
2018-07-20T20:21:29.438Z,20.09
2018-07-20T20:23:57.416Z,19.99
2018-07-20T20:26:25.285Z,19.87
2018-07-20T20:28:53.574Z,19.79
2018-07-20T20:31:21.472Z,19.71
2018-07-20T20:33:49.837Z,19.67
2018-07-20T20:36:17.780Z,19.62
2018-07-20T20:38:45.674Z,19.45
2018-07-20T20:41:13.597Z,19.53
2018-07-20T20:43:41.617Z,19.44
2018-07-20T20:46:09.603Z,19.40
2018-07-20T20:48:37.640Z,19.28
2018-07-20T20:51:06.305Z,19.18
2018-07-20T20:53:34.210Z,19.30
2018-07-20T20:56:02.089Z,19.31
2018-07-20T20:58:30.008Z,19.21
2018-07-20T21:00:57.909Z,19.23
2018-07-20T21:03:25.829Z,19.25
2018-07-20T21:05:53.780Z,19.22
2018-07-20T21:08:21.660Z,19.16
2018-07-20T21:10:49.537Z,19.17
2018-07-20T21:13:17.981Z,19.22
2018-07-20T21:15:45.857Z,19.23
2018-07-20T21:18:13.740Z,19.13
2018-07-20T21:20:41.693Z,19.19
2018-07-20T21:23:09.568Z,19.20
2018-07-20T21:25:37.479Z,19.32
2018-07-20T21:28:05.525Z,19.42
2018-07-20T21:30:33.545Z,19.37
2018-07-20T21:33:01.482Z,19.35
2018-07-20T21:56:02.364Z,19.14
2018-07-20T21:58:30.248Z,19.17
2018-07-20T22:00:58.259Z,19.20
2018-07-20T22:03:26.169Z,19.16
2018-07-20T22:05:54.048Z,19.03
2018-07-20T22:08:22.041Z,19.14
2018-07-20T22:10:49.919Z,19.01
2018-07-20T22:13:17.801Z,18.93
2018-07-20T22:15:46.030Z,18.94
2018-07-20T22:18:13.916Z,18.87
2018-07-20T22:20:41.817Z,18.86
2018-07-20T22:23:09.843Z,18.82
2018-07-20T22:25:37.721Z,18.71
2018-07-20T22:28:05.618Z,18.63
2018-07-20T22:30:33.536Z,18.70
2018-07-20T22:33:01.965Z,18.64
2018-07-20T22:35:29.922Z,18.56
2018-07-20T22:38:12.805Z,18.56
2018-07-20T22:40:40.817Z,18.48
2018-07-20T22:43:08.697Z,18.45
2018-07-20T22:45:36.650Z,18.32
2018-07-20T22:48:04.555Z,18.22
2018-07-20T22:50:32.457Z,18.07
2018-07-20T22:53:00.373Z,18.08
2018-07-20T22:55:28.244Z,18.01
2018-07-20T22:57:56.140Z,18.01
2018-07-20T23:00:24.724Z,17.95
2018-07-20T23:02:52.651Z,17.74
2018-07-20T23:05:20.510Z,17.67
2018-07-20T23:07:48.419Z,17.73
2018-07-20T23:10:16.418Z,17.72
2018-07-20T23:12:44.314Z,17.58
2018-07-20T23:15:12.244Z,17.61
2018-07-20T23:17:40.166Z,17.49
2018-07-20T23:20:08.037Z,17.11
2018-07-20T23:22:36.168Z,16.86
2018-07-20T23:25:04.374Z,16.79
2018-07-20T23:27:32.242Z,16.74
2018-07-20T23:30:00.149Z,17.03
2018-07-20T23:32:28.022Z,16.88
2018-07-20T23:34:55.884Z,17.05
2018-07-20T23:37:23.799Z,16.85
2018-07-20T23:39:52.027Z,16.84
2018-07-20T23:42:19.962Z,16.72
2018-07-20T23:44:48.091Z,16.50
2018-07-20T23:47:15.941Z,16.10
2018-07-20T23:49:43.833Z,15.88
2018-07-20T23:52:11.736Z,15.79
2018-07-20T23:54:39.604Z,15.86
2018-07-20T23:57:07.559Z,15.97
2018-07-20T23:59:35.463Z,16.01
